Time;durP1;ratioP1;P1;durP2;ratioP2;P2;SDS_P1;SDS_P2;PMS_P1;PMS_P2;Temp;Humidity;BMP_temperature;BMP_pressure;BME280_temperature;BME280_humidity;BME280_pressure;Samples;Min_cycle;Max_cycle;Signal;HPM_P1;HPM_P2
2022/03/30 00:01:46;;;;;;;39.38;15.77;;;;;;;;;;4951817;28;100406;-62
2022/03/30 00:04:12;;;;;;;31.05;15.48;;;;;;;;;;4954553;28;99724;-62
2022/03/30 00:06:38;;;;;;;30.75;14.43;;;;;;;;;;4944317;28;99683;-63
2022/03/30 00:09:05;;;;;;;33.53;15.23;;;;;;;;;;4946048;28;98833;-62
2022/03/30 00:11:31;;;;;;;28.88;14.27;;;;;;;;;;4951324;28;98693;-63
2022/03/30 00:13:57;;;;;;;31.83;14.35;;;;;;;;;;4951401;28;99343;-62
2022/03/30 00:16:24;;;;;;;29.92;13.73;;;;;;;;;;4949773;28;99929;-63
2022/03/30 00:18:50;;;;;;;36.05;14.93;;;;;;;;;;4950582;28;98607;-63
2022/03/30 00:21:16;;;;;;;28.27;14.93;;;;;;;;;;4951991;28;100271;-62
2022/03/30 00:23:43;;;;;;;42.60;14.90;;;;;;;;;;4954175;28;100523;-62
2022/03/30 00:26:09;;;;;;;39.58;15.25;;;;;;;;;;4951383;28;99311;-62
2022/03/30 00:28:35;;;;;;;34.42;15.52;;;;;;;;;;4951076;28;99614;-63
2022/03/30 00:31:02;;;;;;;39.58;14.63;;;;;;;;;;4950509;28;98615;-62
2022/03/30 00:33:28;;;;;;;35.47;15.50;;;;;;;;;;4951756;28;100321;-62
2022/03/30 00:35:54;;;;;;;36.90;15.35;;;;;;;;;;4950994;28;99151;-63
2022/03/30 00:38:20;;;;;;;44.70;17.35;;;;;;;;;;4951378;28;98595;-63
2022/03/30 00:40:48;;;;;;;42.42;16.10;;;;;;;;;;4950794;28;99355;-62
2022/03/30 00:43:15;;;;;;;40.75;15.32;;;;;;;;;;4951020;28;99474;-62
2022/03/30 00:45:41;;;;;;;29.80;14.88;;;;;;;;;;4952932;28;98564;-63
2022/03/30 00:48:07;;;;;;;39.03;14.57;;;;;;;;;;4950771;28;99814;-62
2022/03/30 00:50:34;;;;;;;24.75;13.75;;;;;;;;;;4950619;28;100191;-62
2022/03/30 00:53:00;;;;;;;38.00;16.05;;;;;;;;;;4950970;28;99340;-62
2022/03/30 00:55:26;;;;;;;39.35;16.40;;;;;;;;;;4950072;28;99586;-64
2022/03/30 00:57:54;;;;;;;42.65;15.35;;;;;;;;;;4937522;28;97901;-63
2022/03/30 01:00:21;;;;;;;37.35;16.05;;;;;;;;;;4950607;28;100156;-63
2022/03/30 01:02:48;;;;;;;32.88;15.15;;;;;;;;;;4950602;28;99707;-63
2022/03/30 01:05:15;;;;;;;29.23;14.82;;;;;;;;;;4950002;28;99784;-63
2022/03/30 01:07:42;;;;;;;42.15;15.60;;;;;;;;;;4952748;28;100328;-63
2022/03/30 01:10:09;;;;;;;30.58;14.27;;;;;;;;;;4950581;28;98763;-63
2022/03/30 01:12:38;;;;;;;30.10;14.52;;;;;;;;;;4950056;28;100234;-63
2022/03/30 01:15:09;;;;;;;30.67;15.25;;;;;;;;;;4949509;28;100468;-63
2022/03/30 01:17:37;;;;;;;40.45;14.90;;;;;;;;;;4950200;28;99033;-63
2022/03/30 01:20:04;;;;;;;43.22;15.30;;;;;;;;;;4950161;28;100347;-63
2022/03/30 01:22:30;;;;;;;38.85;16.05;;;;;;;;;;4950459;28;98984;-63
2022/03/30 01:24:57;;;;;;;36.38;15.77;;;;;;;;;;4950489;28;98550;-63
2022/03/30 01:27:23;;;;;;;32.58;14.18;;;;;;;;;;4950184;28;99261;-63
2022/03/30 01:32:36;;;;;;;30.60;15.50;;;;;;;;;;4950502;28;100979;-63
2022/03/30 01:35:03;;;;;;;39.72;14.48;;;;;;;;;;4949394;28;100063;-63
2022/03/30 01:37:31;;;;;;;40.38;16.35;;;;;;;;;;4950358;28;98525;-63
2022/03/30 01:39:59;;;;;;;37.17;15.60;;;;;;;;;;4949714;28;99276;-63
2022/03/30 01:42:26;;;;;;;35.47;14.70;;;;;;;;;;4949967;28;99575;-64
2022/03/30 01:44:52;;;;;;;33.08;14.00;;;;;;;;;;4949239;28;98563;-63
2022/03/30 01:47:19;;;;;;;36.08;15.48;;;;;;;;;;4950415;28;99183;-63
2022/03/30 01:49:46;;;;;;;33.22;15.23;;;;;;;;;;4949866;28;99295;-63
2022/03/30 01:52:14;;;;;;;35.03;15.38;;;;;;;;;;4952766;28;98779;-63
2022/03/30 01:54:40;;;;;;;36.63;14.55;;;;;;;;;;4948551;28;100588;-63
2022/03/30 01:57:06;;;;;;;34.08;13.68;;;;;;;;;;4949788;28;98781;-63
2022/03/30 01:59:33;;;;;;;29.75;14.55;;;;;;;;;;4941874;28;100266;-63
2022/03/30 02:02:00;;;;;;;32.40;15.02;;;;;;;;;;4949200;28;100549;-63
2022/03/30 02:04:26;;;;;;;35.70;14.52;;;;;;;;;;4950101;28;98563;-63
2022/03/30 02:06:53;;;;;;;37.45;16.25;;;;;;;;;;4949254;28;99408;-63
2022/03/30 02:09:20;;;;;;;40.67;15.60;;;;;;;;;;4949211;28;100496;-63
2022/03/30 02:11:46;;;;;;;36.25;15.82;;;;;;;;;;4949843;28;97982;-63
2022/03/30 02:14:12;;;;;;;33.00;15.88;;;;;;;;;;4945622;28;98644;-63
2022/03/30 02:16:39;;;;;;;34.22;14.35;;;;;;;;;;4949010;28;98673;-63
2022/03/30 02:19:05;;;;;;;36.28;15.32;;;;;;;;;;4948391;28;99251;-63
2022/03/30 02:21:31;;;;;;;34.20;14.85;;;;;;;;;;4948458;28;99500;-63
2022/03/30 02:23:57;;;;;;;35.72;15.18;;;;;;;;;;4949343;28;98536;-63
2022/03/30 02:26:27;;;;;;;36.90;15.27;;;;;;;;;;4949512;28;100311;-63
2022/03/30 02:28:54;;;;;;;29.63;14.38;;;;;;;;;;4949500;28;99560;-63
2022/03/30 02:31:21;;;;;;;39.40;16.75;;;;;;;;;;4940560;28;98586;-63
2022/03/30 02:33:48;;;;;;;28.25;13.52;;;;;;;;;;4952461;28;98938;-63
2022/03/30 02:36:14;;;;;;;32.22;14.82;;;;;;;;;;4950027;28;97780;-63
2022/03/30 02:38:41;;;;;;;38.47;15.40;;;;;;;;;;4949439;28;98566;-63
2022/03/30 02:41:08;;;;;;;36.92;15.50;;;;;;;;;;4948861;28;99163;-63
2022/03/30 02:43:35;;;;;;;32.08;15.95;;;;;;;;;;4948279;28;99348;-63
2022/03/30 02:46:01;;;;;;;31.40;14.27;;;;;;;;;;4947599;28;99987;-63
2022/03/30 02:48:32;;;;;;;38.20;15.68;;;;;;;;;;4948600;28;100113;-63
2022/03/30 02:51:00;;;;;;;37.33;14.88;;;;;;;;;;4949552;28;98517;-63
2022/03/30 02:53:26;;;;;;;35.88;15.48;;;;;;;;;;4948966;28;100259;-62
2022/03/30 02:55:52;;;;;;;29.83;14.07;;;;;;;;;;4954192;28;100312;-63
2022/03/30 02:58:19;;;;;;;33.20;15.82;;;;;;;;;;4952237;28;100456;-63
2022/03/30 03:00:45;;;;;;;34.22;14.27;;;;;;;;;;4952736;28;98866;-63
2022/03/30 03:03:12;;;;;;;38.30;14.32;;;;;;;;;;4951918;28;98761;-63
2022/03/30 03:05:41;;;;;;;36.45;15.73;;;;;;;;;;4951992;28;99260;-63
2022/03/30 03:08:09;;;;;;;31.20;14.07;;;;;;;;;;4948044;28;100156;-64
2022/03/30 03:10:36;;;;;;;40.40;14.77;;;;;;;;;;4952229;28;98557;-63
2022/03/30 03:13:03;;;;;;;39.90;14.68;;;;;;;;;;4952296;28;99038;-63
2022/03/30 03:15:31;;;;;;;33.50;14.82;;;;;;;;;;4951149;28;99657;-63
2022/03/30 03:17:58;;;;;;;33.40;13.55;;;;;;;;;;4955267;28;98598;-62
2022/03/30 03:20:25;;;;;;;31.20;14.27;;;;;;;;;;4952263;28;100554;-63
2022/03/30 03:22:51;;;;;;;32.70;14.82;;;;;;;;;;4952277;28;98852;-63
2022/03/30 03:25:17;;;;;;;31.92;14.82;;;;;;;;;;4952349;28;99232;-63
2022/03/30 03:27:44;;;;;;;43.75;14.68;;;;;;;;;;4952122;28;99528;-64
2022/03/30 03:30:10;;;;;;;27.63;13.70;;;;;;;;;;4952467;28;98522;-63
2022/03/30 03:32:36;;;;;;;33.75;13.93;;;;;;;;;;4935756;28;99299;-64
2022/03/30 03:35:03;;;;;;;31.63;13.80;;;;;;;;;;4952428;28;100517;-63
2022/03/30 03:37:30;;;;;;;28.17;13.77;;;;;;;;;;4951998;28;98534;-63
2022/03/30 03:39:56;;;;;;;33.90;14.60;;;;;;;;;;4954571;28;100242;-63
2022/03/30 03:42:22;;;;;;;34.17;15.13;;;;;;;;;;4952560;28;98459;-63
2022/03/30 03:44:48;;;;;;;35.17;14.80;;;;;;;;;;4951977;28;99278;-63
2022/03/30 03:47:15;;;;;;;34.08;14.05;;;;;;;;;;4951287;28;100515;-63
2022/03/30 03:49:41;;;;;;;26.08;13.07;;;;;;;;;;4952394;28;97751;-63
2022/03/30 03:52:07;;;;;;;35.08;14.50;;;;;;;;;;4952288;28;99094;-63
2022/03/30 03:54:34;;;;;;;40.35;14.88;;;;;;;;;;4951300;28;100578;-63
2022/03/30 03:57:00;;;;;;;32.03;14.30;;;;;;;;;;4951452;28;101175;-63
2022/03/30 03:59:27;;;;;;;29.33;14.77;;;;;;;;;;4951867;28;99968;-64
2022/03/30 04:01:53;;;;;;;32.03;14.35;;;;;;;;;;4953923;28;99513;-62
2022/03/30 04:04:19;;;;;;;28.27;13.13;;;;;;;;;;4952107;28;99656;-63
2022/03/30 04:06:46;;;;;;;37.05;14.23;;;;;;;;;;4949809;28;99969;-63
2022/03/30 04:09:12;;;;;;;29.77;13.32;;;;;;;;;;4951120;28;98578;-63
2022/03/30 04:11:38;;;;;;;39.92;14.55;;;;;;;;;;4951233;28;99009;-63
2022/03/30 04:14:05;;;;;;;34.58;13.60;;;;;;;;;;4950883;28;98755;-63
2022/03/30 04:16:31;;;;;;;31.27;13.73;;;;;;;;;;4951330;28;98870;-63
2022/03/30 04:18:57;;;;;;;28.75;13.63;;;;;;;;;;4950774;28;99232;-63
2022/03/30 04:21:23;;;;;;;32.67;13.55;;;;;;;;;;4949867;28;100780;-63
2022/03/30 04:23:50;;;;;;;36.60;14.80;;;;;;;;;;4954297;28;98795;-62
2022/03/30 04:26:16;;;;;;;26.42;12.90;;;;;;;;;;4949317;28;99509;-63
2022/03/30 04:28:43;;;;;;;26.80;12.75;;;;;;;;;;4951265;28;98743;-63
2022/03/30 04:31:10;;;;;;;27.58;12.40;;;;;;;;;;4949624;28;99079;-63
2022/03/30 04:33:37;;;;;;;30.23;13.45;;;;;;;;;;4950496;28;99546;-63
2022/03/30 04:36:04;;;;;;;35.53;14.00;;;;;;;;;;4950755;28;98650;-63
2022/03/30 04:38:31;;;;;;;40.03;14.38;;;;;;;;;;4951987;28;99355;-63
2022/03/30 04:40:57;;;;;;;28.70;14.25;;;;;;;;;;4950938;28;99535;-63
2022/03/30 04:43:24;;;;;;;32.40;13.32;;;;;;;;;;4954793;28;98747;-62
2022/03/30 04:45:50;;;;;;;32.38;14.02;;;;;;;;;;4949668;28;100298;-63
2022/03/30 04:48:16;;;;;;;31.88;13.32;;;;;;;;;;4950701;28;98571;-64
2022/03/30 04:50:43;;;;;;;28.50;13.38;;;;;;;;;;4950615;28;99604;-63
2022/03/30 04:53:09;;;;;;;28.52;14.02;;;;;;;;;;4950414;28;99510;-63
2022/03/30 04:55:36;;;;;;;32.03;13.95;;;;;;;;;;4950549;28;98548;-63
2022/03/30 04:58:02;;;;;;;27.65;13.73;;;;;;;;;;4950339;28;100185;-63
2022/03/30 05:00:29;;;;;;;27.55;13.40;;;;;;;;;;4950210;28;99726;-63
2022/03/30 05:02:56;;;;;;;34.38;13.50;;;;;;;;;;4951293;28;97853;-63
2022/03/30 05:05:22;;;;;;;42.35;14.48;;;;;;;;;;4953082;28;98694;-64
2022/03/30 05:07:48;;;;;;;34.92;14.05;;;;;;;;;;4950125;28;98709;-63
2022/03/30 05:10:15;;;;;;;34.00;13.82;;;;;;;;;;4950430;28;100313;-63
2022/03/30 05:12:41;;;;;;;33.65;13.57;;;;;;;;;;4950469;28;99518;-63
2022/03/30 05:15:09;;;;;;;28.13;13.00;;;;;;;;;;4950482;28;98610;-63
2022/03/30 05:17:43;;;;;;;34.75;13.93;;;;;;;;;;4949038;28;99128;-63
2022/03/30 05:20:11;;;;;;;28.30;13.05;;;;;;;;;;4949742;28;100493;-63
2022/03/30 05:22:37;;;;;;;26.58;12.80;;;;;;;;;;4950774;28;98689;-63
2022/03/30 05:25:04;;;;;;;31.15;14.75;;;;;;;;;;4950504;28;99306;-64
2022/03/30 05:27:30;;;;;;;41.65;13.60;;;;;;;;;;4953953;28;99596;-63
2022/03/30 05:29:56;;;;;;;27.50;13.13;;;;;;;;;;4950249;28;98639;-63
2022/03/30 05:32:23;;;;;;;39.58;14.18;;;;;;;;;;4940778;28;100057;-63
2022/03/30 05:34:49;;;;;;;34.17;14.07;;;;;;;;;;4949355;28;99325;-63
2022/03/30 05:37:15;;;;;;;34.33;13.30;;;;;;;;;;4950309;28;99947;-63
2022/03/30 05:39:42;;;;;;;34.58;13.68;;;;;;;;;;4950028;28;99465;-63
2022/03/30 05:42:09;;;;;;;29.45;13.48;;;;;;;;;;4949005;28;98535;-63
2022/03/30 05:44:36;;;;;;;36.13;13.93;;;;;;;;;;4950288;28;100379;-63
2022/03/30 05:47:03;;;;;;;26.10;13.23;;;;;;;;;;4947899;28;100911;-63
2022/03/30 05:49:29;;;;;;;27.42;12.30;;;;;;;;;;4953055;28;98631;-63
2022/03/30 05:51:56;;;;;;;27.75;12.73;;;;;;;;;;4949780;28;98834;-63
2022/03/30 05:54:22;;;;;;;30.85;12.88;;;;;;;;;;4946875;28;98578;-63
2022/03/30 05:57:00;;;;;;;27.45;12.35;;;;;;;;;;4950245;28;100372;-63
2022/03/30 05:59:27;;;;;;;27.10;13.10;;;;;;;;;;4948736;28;100234;-63
2022/03/30 06:01:53;;;;;;;37.22;13.40;;;;;;;;;;4935027;28;98546;-63
2022/03/30 06:04:20;;;;;;;37.53;14.65;;;;;;;;;;4949678;28;99259;-63
2022/03/30 06:06:46;;;;;;;29.20;14.68;;;;;;;;;;4948894;28;99545;-63
2022/03/30 06:09:12;;;;;;;33.20;14.27;;;;;;;;;;4949928;28;98636;-64
2022/03/30 06:11:39;;;;;;;33.70;13.73;;;;;;;;;;4952632;28;98925;-62
2022/03/30 06:14:05;;;;;;;28.08;13.68;;;;;;;;;;4948803;28;98590;-63
2022/03/30 06:16:31;;;;;;;35.17;13.23;;;;;;;;;;4947272;28;99230;-63
2022/03/30 06:18:58;;;;;;;30.42;13.75;;;;;;;;;;4948872;28;99476;-62
2022/03/30 06:21:24;;;;;;;30.92;13.45;;;;;;;;;;4949103;28;98509;-63
2022/03/30 06:23:51;;;;;;;27.98;13.65;;;;;;;;;;4948815;28;100356;-63
2022/03/30 06:26:17;;;;;;;30.63;13.95;;;;;;;;;;4945936;28;98599;-64
2022/03/30 06:28:43;;;;;;;35.58;13.38;;;;;;;;;;4948720;28;100019;-63
2022/03/30 06:31:13;;;;;;;43.83;13.38;;;;;;;;;;4958453;28;99433;-63
2022/03/30 06:33:39;;;;;;;43.45;15.27;;;;;;;;;;4943641;28;98667;-63
2022/03/30 06:36:05;;;;;;;37.85;14.93;;;;;;;;;;4956451;28;99446;-63
2022/03/30 06:38:31;;;;;;;32.53;14.48;;;;;;;;;;4955510;28;99498;-63
2022/03/30 06:40:58;;;;;;;37.70;15.20;;;;;;;;;;4956780;28;97750;-63
2022/03/30 06:43:24;;;;;;;30.77;14.23;;;;;;;;;;4955886;28;99626;-63
2022/03/30 06:45:50;;;;;;;30.10;14.60;;;;;;;;;;4955402;28;99928;-63
2022/03/30 06:48:17;;;;;;;30.67;13.68;;;;;;;;;;4954766;28;99785;-63
2022/03/30 06:50:44;;;;;;;35.08;14.43;;;;;;;;;;4956310;28;99934;-63
2022/03/30 06:53:10;;;;;;;34.80;13.95;;;;;;;;;;4957031;28;100527;-63
2022/03/30 06:55:38;;;;;;;33.08;14.02;;;;;;;;;;4951450;28;99453;-63
2022/03/30 06:58:05;;;;;;;31.42;14.38;;;;;;;;;;4954882;28;99611;-63
2022/03/30 07:00:31;;;;;;;39.78;17.13;;;;;;;;;;4951153;28;99099;-64
2022/03/30 07:02:58;;;;;;;45.78;19.80;;;;;;;;;;4953482;28;99438;-63
2022/03/30 07:05:25;;;;;;;49.53;19.58;;;;;;;;;;4954603;28;99595;-63
2022/03/30 07:10:36;;;;;;;50.28;19.50;;;;;;;;;;4956020;28;101203;-63
2022/03/30 07:13:03;;;;;;;43.03;18.58;;;;;;;;;;4955333;28;100242;-63
2022/03/30 07:15:30;;;;;;;34.22;17.05;;;;;;;;;;4944663;28;98566;-63
2022/03/30 07:17:59;;;;;;;39.72;16.10;;;;;;;;;;4954124;28;99234;-63
2022/03/30 07:20:30;;;;;;;37.25;16.55;;;;;;;;;;4954914;28;98571;-63
2022/03/30 07:22:58;;;;;;;36.28;16.42;;;;;;;;;;4951639;28;99265;-63
2022/03/30 07:25:24;;;;;;;39.05;16.73;;;;;;;;;;4953273;28;99532;-63
2022/03/30 07:27:52;;;;;;;48.75;18.05;;;;;;;;;;4954582;28;98657;-63
2022/03/30 07:30:19;;;;;;;39.97;16.17;;;;;;;;;;4955668;28;99883;-66
2022/03/30 07:32:47;;;;;;;46.85;18.42;;;;;;;;;;4955545;28;99518;-63
2022/03/30 07:35:15;;;;;;;47.20;17.90;;;;;;;;;;4955172;28;98530;-62
2022/03/30 07:37:42;;;;;;;44.70;18.23;;;;;;;;;;4957962;28;99896;-63
2022/03/30 07:40:12;;;;;;;39.35;16.63;;;;;;;;;;4955189;28;98584;-63
2022/03/30 07:42:39;;;;;;;42.67;16.95;;;;;;;;;;4951736;28;100307;-62
2022/03/30 07:45:06;;;;;;;46.72;18.00;;;;;;;;;;4951789;28;100567;-63
2022/03/30 07:47:32;;;;;;;37.10;16.63;;;;;;;;;;4952318;28;98617;-62
2022/03/30 07:49:59;;;;;;;37.50;15.95;;;;;;;;;;4951916;28;99209;-63
2022/03/30 07:52:26;;;;;;;42.70;16.25;;;;;;;;;;4951910;28;99762;-62
2022/03/30 07:54:53;;;;;;;36.85;15.43;;;;;;;;;;4951531;28;99998;-63
2022/03/30 07:57:26;;;;;;;41.15;16.33;;;;;;;;;;4945122;28;98820;-62
2022/03/30 07:59:53;;;;;;;31.80;14.25;;;;;;;;;;4955086;28;99509;-63
2022/03/30 08:02:19;;;;;;;46.63;15.48;;;;;;;;;;4948152;28;99738;-63
2022/03/30 08:04:46;;;;;;;41.30;15.82;;;;;;;;;;4947607;28;99469;-63
2022/03/30 08:07:14;;;;;;;39.80;16.75;;;;;;;;;;4952066;28;98919;-63
2022/03/30 08:09:41;;;;;;;33.42;14.95;;;;;;;;;;4951428;28;99277;-64
2022/03/30 08:12:07;;;;;;;30.70;14.68;;;;;;;;;;4948264;28;99919;-63
2022/03/30 08:14:33;;;;;;;32.70;14.93;;;;;;;;;;4950276;28;98717;-63
2022/03/30 08:17:00;;;;;;;36.13;15.68;;;;;;;;;;4951024;28;99259;-63
2022/03/30 08:19:26;;;;;;;36.17;15.05;;;;;;;;;;4950797;28;98350;-63
2022/03/30 08:24:39;;;;;;;30.23;14.75;;;;;;;;;;4951401;28;99590;-61
2022/03/30 08:27:06;;;;;;;36.15;13.45;;;;;;;;;;4950866;28;99350;-62
2022/03/30 08:29:32;;;;;;;41.20;14.45;;;;;;;;;;4951649;28;101427;-63
2022/03/30 08:31:58;;;;;;;38.53;15.35;;;;;;;;;;4950693;28;98743;-63
2022/03/30 09:29:53;;;;;;;13.65;8.55;;;;;;;;;;5027477;28;86331;-65
2022/03/30 09:32:22;;;;;;;18.77;8.75;;;;;;;;;;5034491;27;86870;-65
2022/03/30 09:34:51;;;;;;;26.60;8.27;;;;;;;;;;5033823;27;88092;-65
2022/03/30 09:37:17;;;;;;;20.67;7.18;;;;;;;;;;5034895;27;87423;-65
2022/03/30 09:39:44;;;;;;;12.05;7.07;;;;;;;;;;5020442;28;86949;-65
2022/03/30 09:42:11;;;;;;;12.30;7.20;;;;;;;;;;5014876;28;87116;-66
2022/03/30 09:45:03;;;;;;;11.45;6.97;;;;;;;;;;5014982;28;87254;-64
2022/03/30 09:47:38;;;;;;;12.77;7.83;;;;;;;;;;5013715;28;88442;-64
2022/03/30 09:50:06;;;;;;;12.13;7.55;;;;;;;;;;5033763;27;87154;-64
2022/03/30 09:52:33;;;;;;;13.80;7.25;;;;;;;;;;5023207;28;87632;-65
2022/03/30 09:55:01;;;;;;;11.43;7.50;;;;;;;;;;5019935;27;87227;-64
2022/03/30 12:33:41;;;;;;;4.20;1.88;;;;;;;;;;5051963;27;86326;-62
2022/03/30 12:36:17;;;;;;;6.57;1.55;;;;;;;;;;5029342;27;86852;-63
2022/03/30 12:38:43;;;;;;;2.33;1.60;;;;;;;;;;5034483;27;87570;-63
2022/03/30 12:41:11;;;;;;;8.30;1.38;;;;;;;;;;5029018;28;88590;-63
2022/03/30 12:43:37;;;;;;;2.55;1.40;;;;;;;;;;5015486;28;87506;-63
2022/03/30 12:46:13;;;;;;;5.50;1.70;;;;;;;;;;5044181;27;86850;-63
2022/03/30 12:48:41;;;;;;;3.30;1.35;;;;;;;;;;5015117;28;87459;-63
2022/03/30 12:51:16;;;;;;;2.85;1.33;;;;;;;;;;5031800;27;87724;-63
2022/03/30 12:53:45;;;;;;;6.05;1.92;;;;;;;;;;5049230;27;87119;-63
2022/03/30 12:56:13;;;;;;;5.70;1.73;;;;;;;;;;5028311;27;87868;-70
2022/03/30 12:58:52;;;;;;;4.68;1.58;;;;;;;;;;5017590;28;87409;-63
2022/03/30 13:01:28;;;;;;;8.80;1.90;;;;;;;;;;5014986;28;88614;-63
2022/03/30 13:03:54;;;;;;;3.80;1.50;;;;;;;;;;5014674;28;87833;-63
2022/03/30 13:06:21;;;;;;;2.15;1.58;;;;;;;;;;5014851;28;88468;-63
2022/03/30 13:09:07;;;;;;;2.30;1.83;;;;;;;;;;5029078;27;88166;-63
2022/03/30 13:11:41;;;;;;;3.65;1.60;;;;;;;;;;5015176;28;87779;-64
2022/03/30 13:14:10;;;;;;;1.77;1.67;;;;;;;;;;5020300;27;87129;-63
2022/03/30 13:16:37;;;;;;;2.55;1.88;;;;;;;;;;5037663;27;88288;-64
2022/03/30 13:19:04;;;;;;;5.68;1.90;;;;;;;;;;5034675;27;87037;-63
2022/03/30 13:21:38;;;;;;;5.30;1.67;;;;;;;;;;5029627;27;86946;-63
2022/03/30 13:24:15;;;;;;;5.10;2.35;;;;;;;;;;5018084;27;88642;-63
2022/03/30 13:26:42;;;;;;;4.75;1.63;;;;;;;;;;5014241;28;86984;-64
2022/03/30 13:29:09;;;;;;;4.43;1.92;;;;;;;;;;5016417;28;86728;-63
2022/03/30 13:31:36;;;;;;;2.25;1.88;;;;;;;;;;5028394;28;88521;-63
2022/03/30 13:34:06;;;;;;;11.80;2.03;;;;;;;;;;5028431;27;87935;-64
2022/03/30 13:36:33;;;;;;;3.75;2.00;;;;;;;;;;5034453;28;87880;-63
2022/03/30 13:38:59;;;;;;;5.45;2.17;;;;;;;;;;5026045;28;89086;-63
2022/03/30 13:41:27;;;;;;;5.57;2.30;;;;;;;;;;5030260;27;87289;-63
2022/03/30 13:43:54;;;;;;;34.92;3.38;;;;;;;;;;5007408;27;88197;-63
2022/03/30 13:46:20;;;;;;;3.05;2.38;;;;;;;;;;5012903;28;87870;-63
2022/03/30 13:48:46;;;;;;;2.67;1.88;;;;;;;;;;5019585;28;86684;-63
2022/03/30 13:51:17;;;;;;;3.15;1.90;;;;;;;;;;5000654;28;86777;-63
2022/03/30 13:53:46;;;;;;;8.95;2.10;;;;;;;;;;5000179;28;86687;-64
2022/03/30 13:56:13;;;;;;;2.97;2.10;;;;;;;;;;5018720;28;87325;-63
2022/03/30 13:58:40;;;;;;;7.93;2.13;;;;;;;;;;5020144;28;87771;-63
2022/03/30 14:01:07;;;;;;;2.97;2.30;;;;;;;;;;5021777;28;87197;-63
2022/03/30 14:03:34;;;;;;;3.70;1.85;;;;;;;;;;5014806;27;88164;-63
2022/03/30 14:06:01;;;;;;;7.85;2.28;;;;;;;;;;5018923;28;88683;-63
2022/03/30 14:08:27;;;;;;;2.35;2.08;;;;;;;;;;5020277;28;87307;-63
2022/03/30 14:10:54;;;;;;;6.32;2.30;;;;;;;;;;5003304;28;87324;-61
2022/03/30 14:13:22;;;;;;;12.60;2.35;;;;;;;;;;5011425;28;87171;-62
2022/03/30 14:15:48;;;;;;;6.07;2.00;;;;;;;;;;5006504;28;88711;-64
2022/03/30 14:18:18;;;;;;;12.57;2.05;;;;;;;;;;5000359;28;88790;-63
2022/03/30 14:20:45;;;;;;;5.55;2.20;;;;;;;;;;5004472;28;87160;-62
2022/03/30 14:23:11;;;;;;;5.82;2.00;;;;;;;;;;5002831;28;87568;-64
2022/03/30 14:25:39;;;;;;;6.18;2.17;;;;;;;;;;5000081;28;86679;-63
2022/03/30 14:28:07;;;;;;;4.05;2.15;;;;;;;;;;5000472;28;88553;-64
2022/03/30 14:30:33;;;;;;;9.10;2.65;;;;;;;;;;5012333;28;87595;-63
2022/03/30 14:33:01;;;;;;;7.95;2.70;;;;;;;;;;5018441;28;87128;-68
2022/03/30 14:35:29;;;;;;;6.28;2.42;;;;;;;;;;5020265;28;87476;-63
2022/03/30 14:37:56;;;;;;;7.25;2.65;;;;;;;;;;5015544;28;87632;-62
2022/03/30 14:40:23;;;;;;;2.22;1.83;;;;;;;;;;5017879;28;87150;-63
2022/03/30 14:42:49;;;;;;;5.90;2.30;;;;;;;;;;5015690;28;87376;-64
2022/03/30 14:45:15;;;;;;;7.55;2.38;;;;;;;;;;5005858;28;86872;-63
2022/03/30 14:47:42;;;;;;;3.28;2.25;;;;;;;;;;5019924;28;87332;-63
2022/03/30 14:50:10;;;;;;;8.95;2.47;;;;;;;;;;5017733;28;86672;-63
2022/03/30 14:52:36;;;;;;;7.00;2.13;;;;;;;;;;5016768;28;87039;-64
2022/03/30 14:55:08;;;;;;;3.30;1.98;;;;;;;;;;5016642;28;87416;-64
2022/03/30 14:57:35;;;;;;;7.45;2.05;;;;;;;;;;4999807;28;87865;-63
2022/03/30 15:00:03;;;;;;;2.47;1.80;;;;;;;;;;5000281;28;87265;-64
2022/03/30 15:02:30;;;;;;;6.00;1.95;;;;;;;;;;5003108;28;87413;-64
2022/03/30 15:04:57;;;;;;;17.02;2.20;;;;;;;;;;5022185;28;88023;-64
2022/03/30 15:07:23;;;;;;;5.07;1.60;;;;;;;;;;5014608;28;88583;-64
2022/03/30 15:09:49;;;;;;;2.60;1.52;;;;;;;;;;4999385;28;87600;-64
2022/03/30 15:12:16;;;;;;;6.97;1.70;;;;;;;;;;5009747;28;87876;-64
2022/03/30 15:14:42;;;;;;;6.05;1.85;;;;;;;;;;5019425;28;87565;-64
2022/03/30 15:17:09;;;;;;;3.25;1.80;;;;;;;;;;5019558;28;87742;-63
2022/03/30 15:19:38;;;;;;;5.40;1.70;;;;;;;;;;5017066;28;87309;-64
2022/03/30 15:22:05;;;;;;;5.28;1.65;;;;;;;;;;5017034;28;87481;-63
2022/03/30 15:24:34;;;;;;;7.63;2.03;;;;;;;;;;5019214;28;87527;-64
2022/03/30 15:27:01;;;;;;;5.03;1.60;;;;;;;;;;5016898;28;88449;-63
2022/03/30 15:29:27;;;;;;;8.60;2.03;;;;;;;;;;5007954;28;86739;-64
2022/03/30 15:31:54;;;;;;;8.30;1.80;;;;;;;;;;5018375;28;87599;-64
2022/03/30 15:34:21;;;;;;;3.85;1.83;;;;;;;;;;5019081;28;87510;-63
2022/03/30 15:36:48;;;;;;;3.25;1.67;;;;;;;;;;4999480;28;87797;-64
2022/03/30 15:39:15;;;;;;;4.40;1.98;;;;;;;;;;4998860;28;86952;-64
2022/03/30 15:41:41;;;;;;;3.60;1.60;;;;;;;;;;4999099;28;88599;-63
2022/03/30 15:44:07;;;;;;;5.35;1.95;;;;;;;;;;4999172;28;88883;-64
2022/03/30 15:46:34;;;;;;;5.53;1.95;;;;;;;;;;5005308;28;87517;-63
2022/03/30 15:49:03;;;;;;;6.78;1.98;;;;;;;;;;5012262;28;87648;-65
2022/03/30 15:51:31;;;;;;;5.40;1.90;;;;;;;;;;5010694;28;87312;-62
2022/03/30 15:53:58;;;;;;;6.07;1.90;;;;;;;;;;5018804;28;87154;-63
2022/03/30 15:56:24;;;;;;;4.75;2.10;;;;;;;;;;5017961;28;88856;-63
2022/03/30 15:58:51;;;;;;;3.15;1.92;;;;;;;;;;5016888;28;88202;-64
2022/03/30 16:01:17;;;;;;;6.43;2.20;;;;;;;;;;5008461;28;87522;-63
2022/03/30 16:03:44;;;;;;;6.75;2.58;;;;;;;;;;5011535;28;88211;-63
2022/03/30 16:06:15;;;;;;;6.90;2.30;;;;;;;;;;5001782;28;88309;-62
2022/03/30 16:09:01;;;;;;;6.85;2.33;;;;;;;;;;4998707;28;87538;-63
2022/03/30 16:14:14;;;;;;;5.20;2.50;;;;;;;;;;4998200;28;87457;-63
2022/03/30 16:16:41;;;;;;;11.25;2.63;;;;;;;;;;5004546;28;88842;-62
2022/03/30 16:19:10;;;;;;;7.32;2.38;;;;;;;;;;5008274;28;87114;-62
2022/03/30 16:21:37;;;;;;;12.55;2.78;;;;;;;;;;5026900;27;87680;-62
2022/03/30 16:24:05;;;;;;;5.93;3.13;;;;;;;;;;5018518;28;89083;-61
2022/03/30 16:26:32;;;;;;;3.65;2.33;;;;;;;;;;5008481;28;87277;-62
2022/03/30 16:28:58;;;;;;;5.57;2.80;;;;;;;;;;4998238;28;87047;-63
2022/03/30 16:31:26;;;;;;;4.18;2.40;;;;;;;;;;5004361;28;88977;-63
2022/03/30 16:33:52;;;;;;;6.68;2.88;;;;;;;;;;5002345;28;88361;-62
2022/03/30 16:36:19;;;;;;;12.60;3.22;;;;;;;;;;4998665;28;88574;-63
2022/03/30 16:38:45;;;;;;;8.70;2.55;;;;;;;;;;4998460;28;87155;-63
2022/03/30 16:41:12;;;;;;;3.10;2.80;;;;;;;;;;4997914;28;88680;-63
2022/03/30 16:43:39;;;;;;;6.32;2.83;;;;;;;;;;4997471;28;87754;-63
2022/03/30 16:46:06;;;;;;;6.63;3.00;;;;;;;;;;5007193;28;88086;-63
2022/03/30 16:48:47;;;;;;;12.63;3.20;;;;;;;;;;5016637;28;89013;-63
2022/03/30 16:51:14;;;;;;;7.63;3.05;;;;;;;;;;5001787;28;88782;-63
2022/03/30 16:53:41;;;;;;;3.80;2.88;;;;;;;;;;4999303;28;89171;-63
2022/03/30 16:56:07;;;;;;;5.85;3.03;;;;;;;;;;4999004;28;88777;-62
2022/03/30 16:58:33;;;;;;;8.13;2.70;;;;;;;;;;5001838;28;88851;-63
2022/03/30 17:01:00;;;;;;;6.22;3.25;;;;;;;;;;5010285;28;88650;-63
2022/03/30 17:03:27;;;;;;;9.43;2.90;;;;;;;;;;5017155;28;88878;-63
2022/03/30 17:05:56;;;;;;;5.55;2.95;;;;;;;;;;5006406;28;90160;-63
2022/03/30 17:11:10;;;;;;;6.93;2.65;;;;;;;;;;5020836;27;87965;-63
2022/03/30 17:13:37;;;;;;;3.85;2.30;;;;;;;;;;4996510;28;88958;-63
2022/03/30 17:16:03;;;;;;;5.13;2.70;;;;;;;;;;5008806;28;89803;-63
2022/03/30 17:18:29;;;;;;;10.32;3.00;;;;;;;;;;5009940;28;89593;-63
2022/03/30 17:20:57;;;;;;;2.60;2.40;;;;;;;;;;5019358;28;90051;-63
2022/03/30 17:23:23;;;;;;;2.35;2.15;;;;;;;;;;5010726;28;88868;-62
2022/03/30 17:25:49;;;;;;;4.68;2.30;;;;;;;;;;5020046;28;89852;-63
2022/03/30 17:28:16;;;;;;;10.68;2.97;;;;;;;;;;5017821;28;89042;-63
2022/03/30 17:30:42;;;;;;;6.95;2.58;;;;;;;;;;5018224;28;87961;-63
2022/03/30 17:33:08;;;;;;;6.47;2.67;;;;;;;;;;5018134;28;88589;-63
2022/03/30 17:35:35;;;;;;;9.68;2.53;;;;;;;;;;5016797;28;89784;-63
2022/03/30 17:38:02;;;;;;;5.47;2.10;;;;;;;;;;5002818;28;88028;-62
2022/03/30 17:40:29;;;;;;;4.63;2.20;;;;;;;;;;5001052;28;89834;-62
2022/03/30 17:42:59;;;;;;;9.30;2.60;;;;;;;;;;4999551;28;88036;-62
2022/03/30 17:45:27;;;;;;;12.43;2.60;;;;;;;;;;5004292;28;88589;-63
2022/03/30 17:47:55;;;;;;;3.92;1.65;;;;;;;;;;5019268;28;90435;-64
2022/03/30 17:53:06;;;;;;;5.60;1.98;;;;;;;;;;4999831;28;89746;-64
2022/03/30 17:55:33;;;;;;;3.83;2.00;;;;;;;;;;4999473;28;88986;-65
2022/03/30 17:58:00;;;;;;;7.55;1.65;;;;;;;;;;5001289;28;88763;-64
2022/03/30 18:00:28;;;;;;;6.55;2.20;;;;;;;;;;5016769;28;88496;-65
2022/03/30 18:02:55;;;;;;;8.50;2.10;;;;;;;;;;5017795;28;88052;-63
2022/03/30 18:05:21;;;;;;;4.30;1.55;;;;;;;;;;5004781;28;88917;-63
2022/03/30 18:07:48;;;;;;;11.38;1.95;;;;;;;;;;5015278;28;90148;-63
2022/03/30 18:10:14;;;;;;;2.58;1.42;;;;;;;;;;4999330;28;88048;-62
2022/03/30 18:12:44;;;;;;;7.85;1.70;;;;;;;;;;4999435;28;88584;-62
2022/03/30 18:15:11;;;;;;;2.70;1.40;;;;;;;;;;5002753;28;90037;-62